sensor_id;sensor_type;location;lat;lon;timestamp;P1;durP1;ratioP1;P2;durP2;ratioP2
10031;SDS011;5056;44.272;19.892;2022-08-19T00:01:49;6.88;;;6.15;;
10031;SDS011;5056;44.272;19.892;2022-08-19T00:04:17;6.60;;;6.00;;
10031;SDS011;5056;44.272;19.892;2022-08-19T00:06:54;6.22;;;5.68;;
10031;SDS011;5056;44.272;19.892;2022-08-19T00:09:24;6.60;;;5.95;;
10031;SDS011;5056;44.272;19.892;2022-08-19T00:11:52;6.28;;;5.72;;
10031;SDS011;5056;44.272;19.892;2022-08-19T00:14:24;6.57;;;6.07;;
10031;SDS011;5056;44.272;19.892;2022-08-19T00:16:52;7.25;;;6.05;;
10031;SDS011;5056;44.272;19.892;2022-08-19T00:19:21;7.03;;;5.63;;
10031;SDS011;5056;44.272;19.892;2022-08-19T00:21:49;6.55;;;6.05;;
10031;SDS011;5056;44.272;19.892;2022-08-19T00:27:10;8.20;;;6.72;;
10031;SDS011;5056;44.272;19.892;2022-08-19T00:29:40;6.60;;;6.00;;
10031;SDS011;5056;44.272;19.892;2022-08-19T00:32:07;8.45;;;7.25;;
10031;SDS011;5056;44.272;19.892;2022-08-19T00:34:42;6.65;;;5.97;;
10031;SDS011;5056;44.272;19.892;2022-08-19T00:37:18;7.68;;;6.07;;
10031;SDS011;5056;44.272;19.892;2022-08-19T00:39:53;6.15;;;5.65;;
10031;SDS011;5056;44.272;19.892;2022-08-19T00:42:21;6.80;;;6.10;;
10031;SDS011;5056;44.272;19.892;2022-08-19T00:44:55;6.53;;;5.90;;
10031;SDS011;5056;44.272;19.892;2022-08-19T00:47:33;6.15;;;5.70;;
10031;SDS011;5056;44.272;19.892;2022-08-19T00:50:00;6.80;;;6.20;;
10031;SDS011;5056;44.272;19.892;2022-08-19T00:52:33;7.80;;;6.25;;
10031;SDS011;5056;44.272;19.892;2022-08-19T00:55:07;6.93;;;6.32;;
10031;SDS011;5056;44.272;19.892;2022-08-19T00:57:39;7.03;;;6.18;;
10031;SDS011;5056;44.272;19.892;2022-08-19T01:00:10;6.30;;;5.80;;
10031;SDS011;5056;44.272;19.892;2022-08-19T01:02:47;7.93;;;5.97;;
10031;SDS011;5056;44.272;19.892;2022-08-19T01:05:16;7.47;;;6.55;;
10031;SDS011;5056;44.272;19.892;2022-08-19T01:07:57;6.78;;;5.70;;
10031;SDS011;5056;44.272;19.892;2022-08-19T01:10:33;6.65;;;5.57;;
10031;SDS011;5056;44.272;19.892;2022-08-19T01:13:04;6.60;;;5.90;;
10031;SDS011;5056;44.272;19.892;2022-08-19T01:15:33;6.38;;;5.88;;
10031;SDS011;5056;44.272;19.892;2022-08-19T01:18:13;7.22;;;5.93;;
10031;SDS011;5056;44.272;19.892;2022-08-19T01:20:44;6.47;;;5.88;;
10031;SDS011;5056;44.272;19.892;2022-08-19T01:23:14;6.53;;;5.78;;
10031;SDS011;5056;44.272;19.892;2022-08-19T01:25:48;5.65;;;5.28;;
10031;SDS011;5056;44.272;19.892;2022-08-19T01:28:23;6.30;;;5.68;;
10031;SDS011;5056;44.272;19.892;2022-08-19T01:30:54;7.82;;;6.35;;
10031;SDS011;5056;44.272;19.892;2022-08-19T01:33:22;6.88;;;5.95;;
10031;SDS011;5056;44.272;19.892;2022-08-19T01:35:50;6.40;;;5.80;;
10031;SDS011;5056;44.272;19.892;2022-08-19T01:38:23;5.95;;;5.35;;
10031;SDS011;5056;44.272;19.892;2022-08-19T01:40:51;6.25;;;5.75;;
10031;SDS011;5056;44.272;19.892;2022-08-19T01:43:20;7.18;;;6.50;;
10031;SDS011;5056;44.272;19.892;2022-08-19T01:45:47;6.28;;;5.78;;
10031;SDS011;5056;44.272;19.892;2022-08-19T01:48:16;5.95;;;5.43;;
10031;SDS011;5056;44.272;19.892;2022-08-19T01:50:45;6.57;;;5.97;;
10031;SDS011;5056;44.272;19.892;2022-08-19T01:53:13;6.90;;;6.10;;
10031;SDS011;5056;44.272;19.892;2022-08-19T01:55:42;6.30;;;5.80;;
10031;SDS011;5056;44.272;19.892;2022-08-19T01:58:11;6.05;;;5.65;;
10031;SDS011;5056;44.272;19.892;2022-08-19T02:00:39;5.97;;;5.50;;
10031;SDS011;5056;44.272;19.892;2022-08-19T02:03:07;5.88;;;5.38;;
10031;SDS011;5056;44.272;19.892;2022-08-19T02:05:36;7.57;;;6.00;;
10031;SDS011;5056;44.272;19.892;2022-08-19T02:11:08;6.82;;;5.68;;
10031;SDS011;5056;44.272;19.892;2022-08-19T02:13:36;6.80;;;5.97;;
10031;SDS011;5056;44.272;19.892;2022-08-19T02:16:05;6.28;;;5.72;;
10031;SDS011;5056;44.272;19.892;2022-08-19T02:18:33;6.63;;;5.93;;
10031;SDS011;5056;44.272;19.892;2022-08-19T02:21:02;6.35;;;5.85;;
10031;SDS011;5056;44.272;19.892;2022-08-19T02:23:30;6.38;;;5.88;;
10031;SDS011;5056;44.272;19.892;2022-08-19T02:25:58;6.68;;;6.07;;
10031;SDS011;5056;44.272;19.892;2022-08-19T02:28:27;6.78;;;6.13;;
10031;SDS011;5056;44.272;19.892;2022-08-19T02:30:54;6.60;;;5.85;;
10031;SDS011;5056;44.272;19.892;2022-08-19T02:33:21;5.68;;;5.28;;
10031;SDS011;5056;44.272;19.892;2022-08-19T02:35:49;6.13;;;5.55;;
10031;SDS011;5056;44.272;19.892;2022-08-19T02:38:18;6.28;;;5.68;;
10031;SDS011;5056;44.272;19.892;2022-08-19T02:40:52;6.10;;;5.50;;
10031;SDS011;5056;44.272;19.892;2022-08-19T02:43:28;5.85;;;5.32;;
10031;SDS011;5056;44.272;19.892;2022-08-19T02:46:10;6.75;;;6.00;;
10031;SDS011;5056;44.272;19.892;2022-08-19T02:48:39;6.38;;;5.78;;
10031;SDS011;5056;44.272;19.892;2022-08-19T02:51:09;6.57;;;5.97;;
10031;SDS011;5056;44.272;19.892;2022-08-19T02:53:46;6.13;;;5.55;;
10031;SDS011;5056;44.272;19.892;2022-08-19T02:56:23;6.93;;;5.82;;
10031;SDS011;5056;44.272;19.892;2022-08-19T02:58:55;9.60;;;6.03;;
10031;SDS011;5056;44.272;19.892;2022-08-19T03:01:23;6.53;;;5.88;;
10031;SDS011;5056;44.272;19.892;2022-08-19T03:04:02;6.75;;;5.40;;
10031;SDS011;5056;44.272;19.892;2022-08-19T03:06:31;9.02;;;6.47;;
10031;SDS011;5056;44.272;19.892;2022-08-19T03:08:58;6.13;;;5.53;;
10031;SDS011;5056;44.272;19.892;2022-08-19T03:11:29;11.50;;;6.75;;
10031;SDS011;5056;44.272;19.892;2022-08-19T03:14:00;7.25;;;6.00;;
10031;SDS011;5056;44.272;19.892;2022-08-19T03:16:28;7.13;;;6.30;;
10031;SDS011;5056;44.272;19.892;2022-08-19T03:18:59;6.70;;;6.05;;
10031;SDS011;5056;44.272;19.892;2022-08-19T03:21:28;6.45;;;5.93;;
10031;SDS011;5056;44.272;19.892;2022-08-19T03:23:58;5.78;;;5.30;;
10031;SDS011;5056;44.272;19.892;2022-08-19T03:26:28;6.10;;;5.60;;
10031;SDS011;5056;44.272;19.892;2022-08-19T03:28:55;6.47;;;5.88;;
10031;SDS011;5056;44.272;19.892;2022-08-19T03:31:33;6.68;;;6.07;;
10031;SDS011;5056;44.272;19.892;2022-08-19T03:34:05;6.55;;;5.30;;
10031;SDS011;5056;44.272;19.892;2022-08-19T03:36:34;6.65;;;6.00;;
10031;SDS011;5056;44.272;19.892;2022-08-19T03:39:02;6.65;;;5.68;;
10031;SDS011;5056;44.272;19.892;2022-08-19T03:41:36;6.00;;;5.47;;
10031;SDS011;5056;44.272;19.892;2022-08-19T03:44:05;9.45;;;6.63;;
10031;SDS011;5056;44.272;19.892;2022-08-19T03:46:37;6.75;;;6.07;;
10031;SDS011;5056;44.272;19.892;2022-08-19T03:49:10;6.50;;;5.82;;
10031;SDS011;5056;44.272;19.892;2022-08-19T03:51:37;6.47;;;5.65;;
10031;SDS011;5056;44.272;19.892;2022-08-19T03:54:07;7.93;;;6.30;;
10031;SDS011;5056;44.272;19.892;2022-08-19T03:56:37;7.13;;;6.43;;
10031;SDS011;5056;44.272;19.892;2022-08-19T03:59:06;6.35;;;5.75;;
10031;SDS011;5056;44.272;19.892;2022-08-19T04:01:37;10.35;;;6.75;;
10031;SDS011;5056;44.272;19.892;2022-08-19T04:04:05;7.82;;;5.63;;
10031;SDS011;5056;44.272;19.892;2022-08-19T04:06:34;10.00;;;5.90;;
10031;SDS011;5056;44.272;19.892;2022-08-19T04:09:07;8.95;;;6.45;;
10031;SDS011;5056;44.272;19.892;2022-08-19T04:11:38;11.13;;;6.40;;
10031;SDS011;5056;44.272;19.892;2022-08-19T04:14:08;7.40;;;6.70;;
10031;SDS011;5056;44.272;19.892;2022-08-19T04:16:38;8.02;;;6.35;;
10031;SDS011;5056;44.272;19.892;2022-08-19T04:19:08;7.57;;;6.13;;
10031;SDS011;5056;44.272;19.892;2022-08-19T04:21:35;8.43;;;6.63;;
10031;SDS011;5056;44.272;19.892;2022-08-19T04:24:02;6.68;;;6.07;;
10031;SDS011;5056;44.272;19.892;2022-08-19T04:26:33;8.25;;;5.85;;
10031;SDS011;5056;44.272;19.892;2022-08-19T04:29:07;7.38;;;6.40;;
10031;SDS011;5056;44.272;19.892;2022-08-19T04:31:40;6.78;;;5.97;;
10031;SDS011;5056;44.272;19.892;2022-08-19T04:34:10;8.80;;;6.38;;
10031;SDS011;5056;44.272;19.892;2022-08-19T04:36:40;9.02;;;6.82;;
10031;SDS011;5056;44.272;19.892;2022-08-19T04:39:11;7.95;;;6.53;;
10031;SDS011;5056;44.272;19.892;2022-08-19T04:41:42;7.82;;;6.43;;
10031;SDS011;5056;44.272;19.892;2022-08-19T04:44:29;6.32;;;5.82;;
10031;SDS011;5056;44.272;19.892;2022-08-19T04:46:58;7.03;;;6.38;;
10031;SDS011;5056;44.272;19.892;2022-08-19T04:49:26;8.77;;;6.72;;
10031;SDS011;5056;44.272;19.892;2022-08-19T04:51:55;11.00;;;7.40;;
10031;SDS011;5056;44.272;19.892;2022-08-19T04:54:26;6.55;;;6.05;;
10031;SDS011;5056;44.272;19.892;2022-08-19T04:57:05;7.00;;;6.18;;
10031;SDS011;5056;44.272;19.892;2022-08-19T04:59:39;9.90;;;6.63;;
10031;SDS011;5056;44.272;19.892;2022-08-19T05:02:08;7.55;;;6.95;;
10031;SDS011;5056;44.272;19.892;2022-08-19T05:04:39;8.68;;;7.85;;
10031;SDS011;5056;44.272;19.892;2022-08-19T05:07:07;10.25;;;8.73;;
10031;SDS011;5056;44.272;19.892;2022-08-19T05:09:40;9.40;;;8.52;;
10031;SDS011;5056;44.272;19.892;2022-08-19T05:12:09;10.07;;;7.63;;
10031;SDS011;5056;44.272;19.892;2022-08-19T05:14:37;9.90;;;7.40;;
10031;SDS011;5056;44.272;19.892;2022-08-19T05:17:09;8.30;;;7.05;;
10031;SDS011;5056;44.272;19.892;2022-08-19T05:23:07;10.05;;;6.43;;
10031;SDS011;5056;44.272;19.892;2022-08-19T05:25:38;6.63;;;5.97;;
10031;SDS011;5056;44.272;19.892;2022-08-19T05:28:06;10.23;;;7.25;;
10031;SDS011;5056;44.272;19.892;2022-08-19T05:30:32;7.50;;;6.68;;
10031;SDS011;5056;44.272;19.892;2022-08-19T05:33:02;8.05;;;6.65;;
10031;SDS011;5056;44.272;19.892;2022-08-19T05:38:02;10.23;;;6.43;;
10031;SDS011;5056;44.272;19.892;2022-08-19T05:40:29;9.10;;;6.90;;
10031;SDS011;5056;44.272;19.892;2022-08-19T05:42:57;7.82;;;6.78;;
10031;SDS011;5056;44.272;19.892;2022-08-19T05:45:24;7.80;;;6.47;;
10031;SDS011;5056;44.272;19.892;2022-08-19T05:47:51;7.10;;;6.50;;
10031;SDS011;5056;44.272;19.892;2022-08-19T05:50:20;6.90;;;6.30;;
10031;SDS011;5056;44.272;19.892;2022-08-19T05:52:47;7.65;;;6.30;;
10031;SDS011;5056;44.272;19.892;2022-08-19T05:55:14;21.73;;;7.40;;
10031;SDS011;5056;44.272;19.892;2022-08-19T05:57:41;7.72;;;7.05;;
10031;SDS011;5056;44.272;19.892;2022-08-19T06:00:12;7.80;;;6.82;;
10031;SDS011;5056;44.272;19.892;2022-08-19T06:02:51;8.13;;;6.35;;
10031;SDS011;5056;44.272;19.892;2022-08-19T06:05:25;8.63;;;7.22;;
10031;SDS011;5056;44.272;19.892;2022-08-19T06:11:10;10.32;;;6.45;;
10031;SDS011;5056;44.272;19.892;2022-08-19T06:13:45;13.95;;;7.40;;
10031;SDS011;5056;44.272;19.892;2022-08-19T06:18:49;9.15;;;6.75;;
10031;SDS011;5056;44.272;19.892;2022-08-19T06:21:28;7.80;;;6.88;;
10031;SDS011;5056;44.272;19.892;2022-08-19T06:23:56;9.73;;;6.82;;
10031;SDS011;5056;44.272;19.892;2022-08-19T06:26:25;10.77;;;7.00;;
10031;SDS011;5056;44.272;19.892;2022-08-19T06:28:52;9.90;;;6.32;;
10031;SDS011;5056;44.272;19.892;2022-08-19T06:31:22;8.27;;;6.50;;
10031;SDS011;5056;44.272;19.892;2022-08-19T06:33:52;14.10;;;6.57;;
10031;SDS011;5056;44.272;19.892;2022-08-19T06:36:23;10.40;;;7.43;;
10031;SDS011;5056;44.272;19.892;2022-08-19T06:38:58;13.50;;;7.40;;
10031;SDS011;5056;44.272;19.892;2022-08-19T06:41:27;21.70;;;8.60;;
10031;SDS011;5056;44.272;19.892;2022-08-19T06:43:57;14.38;;;8.40;;
10031;SDS011;5056;44.272;19.892;2022-08-19T06:46:24;13.07;;;7.63;;
10031;SDS011;5056;44.272;19.892;2022-08-19T06:48:51;16.33;;;8.90;;
10031;SDS011;5056;44.272;19.892;2022-08-19T06:51:19;11.50;;;7.35;;
10031;SDS011;5056;44.272;19.892;2022-08-19T06:53:47;14.13;;;7.40;;
10031;SDS011;5056;44.272;19.892;2022-08-19T06:56:18;12.57;;;7.55;;
10031;SDS011;5056;44.272;19.892;2022-08-19T06:58:48;13.60;;;7.47;;
10031;SDS011;5056;44.272;19.892;2022-08-19T07:01:16;11.90;;;7.43;;
10031;SDS011;5056;44.272;19.892;2022-08-19T07:03:43;11.77;;;7.40;;
10031;SDS011;5056;44.272;19.892;2022-08-19T07:06:12;13.40;;;7.32;;
10031;SDS011;5056;44.272;19.892;2022-08-19T07:08:42;15.75;;;6.68;;
10031;SDS011;5056;44.272;19.892;2022-08-19T07:11:13;15.57;;;7.72;;
10031;SDS011;5056;44.272;19.892;2022-08-19T07:13:45;14.85;;;7.47;;
10031;SDS011;5056;44.272;19.892;2022-08-19T07:16:15;9.00;;;7.15;;
10031;SDS011;5056;44.272;19.892;2022-08-19T07:18:44;16.80;;;7.72;;
10031;SDS011;5056;44.272;19.892;2022-08-19T07:21:12;16.30;;;7.22;;
10031;SDS011;5056;44.272;19.892;2022-08-19T07:23:43;22.30;;;8.25;;
10031;SDS011;5056;44.272;19.892;2022-08-19T07:26:14;22.48;;;7.57;;
10031;SDS011;5056;44.272;19.892;2022-08-19T07:28:46;14.38;;;7.90;;
10031;SDS011;5056;44.272;19.892;2022-08-19T07:31:15;13.50;;;7.60;;
10031;SDS011;5056;44.272;19.892;2022-08-19T07:33:54;21.55;;;8.57;;
10031;SDS011;5056;44.272;19.892;2022-08-19T07:36:25;22.75;;;9.00;;
10031;SDS011;5056;44.272;19.892;2022-08-19T07:38:57;18.20;;;7.43;;
10031;SDS011;5056;44.272;19.892;2022-08-19T07:41:26;11.80;;;7.40;;
10031;SDS011;5056;44.272;19.892;2022-08-19T07:43:58;17.17;;;8.05;;
10031;SDS011;5056;44.272;19.892;2022-08-19T07:46:29;13.15;;;7.18;;
10031;SDS011;5056;44.272;19.892;2022-08-19T07:48:56;23.95;;;8.32;;
10031;SDS011;5056;44.272;19.892;2022-08-19T07:51:23;16.02;;;7.60;;
10031;SDS011;5056;44.272;19.892;2022-08-19T07:53:51;21.40;;;8.07;;
10031;SDS011;5056;44.272;19.892;2022-08-19T07:56:18;20.20;;;6.70;;
10031;SDS011;5056;44.272;19.892;2022-08-19T07:58:47;14.27;;;6.72;;
10031;SDS011;5056;44.272;19.892;2022-08-19T08:01:19;15.75;;;7.18;;
10031;SDS011;5056;44.272;19.892;2022-08-19T08:03:49;13.13;;;6.57;;
10031;SDS011;5056;44.272;19.892;2022-08-19T08:06:34;12.50;;;7.25;;
10031;SDS011;5056;44.272;19.892;2022-08-19T08:09:22;19.30;;;6.95;;
10031;SDS011;5056;44.272;19.892;2022-08-19T08:11:54;23.70;;;7.43;;
10031;SDS011;5056;44.272;19.892;2022-08-19T08:14:24;22.30;;;7.32;;
10031;SDS011;5056;44.272;19.892;2022-08-19T08:16:56;9.15;;;6.00;;
10031;SDS011;5056;44.272;19.892;2022-08-19T08:19:24;15.93;;;6.55;;
10031;SDS011;5056;44.272;19.892;2022-08-19T08:21:53;13.40;;;6.30;;
10031;SDS011;5056;44.272;19.892;2022-08-19T08:24:22;12.30;;;6.45;;
10031;SDS011;5056;44.272;19.892;2022-08-19T08:26:50;10.32;;;6.70;;
10031;SDS011;5056;44.272;19.892;2022-08-19T08:29:16;8.40;;;6.10;;
10031;SDS011;5056;44.272;19.892;2022-08-19T08:31:47;9.75;;;5.78;;
10031;SDS011;5056;44.272;19.892;2022-08-19T08:34:17;8.88;;;6.32;;
10031;SDS011;5056;44.272;19.892;2022-08-19T08:36:45;12.65;;;6.70;;
10031;SDS011;5056;44.272;19.892;2022-08-19T08:39:13;11.07;;;6.18;;
10031;SDS011;5056;44.272;19.892;2022-08-19T08:41:44;17.27;;;7.18;;
10031;SDS011;5056;44.272;19.892;2022-08-19T08:44:15;14.05;;;5.97;;
10031;SDS011;5056;44.272;19.892;2022-08-19T08:46:45;15.80;;;6.78;;
10031;SDS011;5056;44.272;19.892;2022-08-19T08:49:18;9.32;;;6.03;;
10031;SDS011;5056;44.272;19.892;2022-08-19T08:51:51;11.75;;;6.65;;
10031;SDS011;5056;44.272;19.892;2022-08-19T08:54:21;8.63;;;6.28;;
10031;SDS011;5056;44.272;19.892;2022-08-19T08:56:51;8.13;;;6.10;;
10031;SDS011;5056;44.272;19.892;2022-08-19T08:59:20;5.88;;;5.38;;
10031;SDS011;5056;44.272;19.892;2022-08-19T09:01:50;12.13;;;6.43;;
10031;SDS011;5056;44.272;19.892;2022-08-19T09:04:21;12.65;;;6.30;;
10031;SDS011;5056;44.272;19.892;2022-08-19T09:06:49;10.55;;;6.32;;
10031;SDS011;5056;44.272;19.892;2022-08-19T09:09:22;18.13;;;6.35;;
10031;SDS011;5056;44.272;19.892;2022-08-19T09:11:58;9.70;;;5.85;;
10031;SDS011;5056;44.272;19.892;2022-08-19T09:17:31;9.73;;;5.85;;
10031;SDS011;5056;44.272;19.892;2022-08-19T09:20:02;6.75;;;5.53;;
10031;SDS011;5056;44.272;19.892;2022-08-19T09:22:33;10.95;;;6.20;;
10031;SDS011;5056;44.272;19.892;2022-08-19T09:25:01;9.73;;;6.13;;
10031;SDS011;5056;44.272;19.892;2022-08-19T09:27:30;14.82;;;6.72;;
10031;SDS011;5056;44.272;19.892;2022-08-19T09:29:58;13.02;;;6.82;;
10031;SDS011;5056;44.272;19.892;2022-08-19T09:32:25;10.45;;;6.25;;
10031;SDS011;5056;44.272;19.892;2022-08-19T09:34:53;12.52;;;6.68;;
10031;SDS011;5056;44.272;19.892;2022-08-19T09:37:24;14.50;;;7.32;;
10031;SDS011;5056;44.272;19.892;2022-08-19T09:39:52;8.73;;;6.60;;
10031;SDS011;5056;44.272;19.892;2022-08-19T09:42:19;11.07;;;6.72;;
10031;SDS011;5056;44.272;19.892;2022-08-19T09:44:46;9.43;;;5.65;;
10031;SDS011;5056;44.272;19.892;2022-08-19T09:47:15;12.82;;;5.22;;
10031;SDS011;5056;44.272;19.892;2022-08-19T09:49:43;10.02;;;5.95;;
10031;SDS011;5056;44.272;19.892;2022-08-19T09:52:10;6.00;;;5.40;;
10031;SDS011;5056;44.272;19.892;2022-08-19T09:54:39;13.68;;;6.18;;
10031;SDS011;5056;44.272;19.892;2022-08-19T09:57:09;6.80;;;5.60;;
10031;SDS011;5056;44.272;19.892;2022-08-19T09:59:36;10.35;;;5.75;;
10031;SDS011;5056;44.272;19.892;2022-08-19T10:02:05;10.07;;;5.65;;
10031;SDS011;5056;44.272;19.892;2022-08-19T10:04:32;9.30;;;5.63;;
10031;SDS011;5056;44.272;19.892;2022-08-19T10:10:21;8.45;;;4.90;;
10031;SDS011;5056;44.272;19.892;2022-08-19T10:12:51;10.93;;;5.93;;
10031;SDS011;5056;44.272;19.892;2022-08-19T10:15:20;12.10;;;6.32;;
10031;SDS011;5056;44.272;19.892;2022-08-19T10:17:47;8.57;;;5.53;;
10031;SDS011;5056;44.272;19.892;2022-08-19T10:20:16;10.55;;;5.28;;
10031;SDS011;5056;44.272;19.892;2022-08-19T10:22:44;15.57;;;6.20;;
10031;SDS011;5056;44.272;19.892;2022-08-19T10:25:12;11.07;;;5.65;;
10031;SDS011;5056;44.272;19.892;2022-08-19T10:30:28;13.35;;;6.18;;
10031;SDS011;5056;44.272;19.892;2022-08-19T10:33:01;8.10;;;5.45;;
10031;SDS011;5056;44.272;19.892;2022-08-19T10:35:28;11.40;;;5.63;;
10031;SDS011;5056;44.272;19.892;2022-08-19T10:37:58;9.50;;;5.25;;
10031;SDS011;5056;44.272;19.892;2022-08-19T10:40:27;6.20;;;5.03;;
10031;SDS011;5056;44.272;19.892;2022-08-19T10:45:57;16.02;;;6.88;;
10031;SDS011;5056;44.272;19.892;2022-08-19T10:48:49;12.82;;;5.80;;
10031;SDS011;5056;44.272;19.892;2022-08-19T10:51:24;11.38;;;5.70;;
10031;SDS011;5056;44.272;19.892;2022-08-19T10:54:09;11.68;;;5.78;;
10031;SDS011;5056;44.272;19.892;2022-08-19T10:56:36;8.20;;;5.55;;
10031;SDS011;5056;44.272;19.892;2022-08-19T10:59:19;13.68;;;5.95;;
10031;SDS011;5056;44.272;19.892;2022-08-19T11:01:49;9.05;;;5.18;;
10031;SDS011;5056;44.272;19.892;2022-08-19T11:04:20;9.75;;;5.88;;
10031;SDS011;5056;44.272;19.892;2022-08-19T11:06:48;16.60;;;5.65;;
10031;SDS011;5056;44.272;19.892;2022-08-19T11:09:17;15.52;;;5.80;;
10031;SDS011;5056;44.272;19.892;2022-08-19T11:11:46;11.18;;;4.93;;
10031;SDS011;5056;44.272;19.892;2022-08-19T11:14:15;9.20;;;5.07;;
10031;SDS011;5056;44.272;19.892;2022-08-19T11:16:47;12.75;;;5.22;;
10031;SDS011;5056;44.272;19.892;2022-08-19T11:19:14;6.40;;;5.25;;
10031;SDS011;5056;44.272;19.892;2022-08-19T11:21:45;11.95;;;5.18;;
10031;SDS011;5056;44.272;19.892;2022-08-19T11:24:14;11.82;;;4.97;;
10031;SDS011;5056;44.272;19.892;2022-08-19T11:26:45;11.15;;;5.63;;
10031;SDS011;5056;44.272;19.892;2022-08-19T11:29:14;8.80;;;5.18;;
10031;SDS011;5056;44.272;19.892;2022-08-19T11:31:44;8.07;;;5.00;;
10031;SDS011;5056;44.272;19.892;2022-08-19T11:34:15;14.57;;;5.30;;
10031;SDS011;5056;44.272;19.892;2022-08-19T11:36:44;8.65;;;5.20;;
10031;SDS011;5056;44.272;19.892;2022-08-19T11:39:14;11.40;;;5.20;;
10031;SDS011;5056;44.272;19.892;2022-08-19T11:44:20;16.05;;;5.60;;
10031;SDS011;5056;44.272;19.892;2022-08-19T11:46:47;36.10;;;6.97;;
10031;SDS011;5056;44.272;19.892;2022-08-19T11:49:19;11.27;;;5.63;;
10031;SDS011;5056;44.272;19.892;2022-08-19T11:51:46;13.13;;;5.53;;
10031;SDS011;5056;44.272;19.892;2022-08-19T11:54:15;8.07;;;5.03;;
10031;SDS011;5056;44.272;19.892;2022-08-19T11:56:43;13.20;;;5.88;;
10031;SDS011;5056;44.272;19.892;2022-08-19T11:59:14;12.40;;;5.45;;
10031;SDS011;5056;44.272;19.892;2022-08-19T12:01:41;9.48;;;4.97;;
10031;SDS011;5056;44.272;19.892;2022-08-19T12:04:08;16.70;;;5.57;;
10031;SDS011;5056;44.272;19.892;2022-08-19T12:06:39;13.23;;;5.70;;
10031;SDS011;5056;44.272;19.892;2022-08-19T12:09:07;17.98;;;5.55;;
10031;SDS011;5056;44.272;19.892;2022-08-19T12:11:35;9.50;;;4.85;;
10031;SDS011;5056;44.272;19.892;2022-08-19T12:14:04;8.82;;;5.35;;
10031;SDS011;5056;44.272;19.892;2022-08-19T12:16:32;13.68;;;5.88;;
10031;SDS011;5056;44.272;19.892;2022-08-19T12:19:03;13.90;;;5.95;;
10031;SDS011;5056;44.272;19.892;2022-08-19T12:21:32;9.73;;;4.80;;
10031;SDS011;5056;44.272;19.892;2022-08-19T12:24:03;9.25;;;5.35;;
10031;SDS011;5056;44.272;19.892;2022-08-19T12:26:30;9.85;;;4.97;;
10031;SDS011;5056;44.272;19.892;2022-08-19T12:28:59;9.65;;;5.50;;
10031;SDS011;5056;44.272;19.892;2022-08-19T12:31:26;12.52;;;6.30;;
10031;SDS011;5056;44.272;19.892;2022-08-19T12:33:54;9.88;;;5.68;;
10031;SDS011;5056;44.272;19.892;2022-08-19T12:36:21;9.48;;;5.20;;
10031;SDS011;5056;44.272;19.892;2022-08-19T12:38:50;8.50;;;5.25;;
10031;SDS011;5056;44.272;19.892;2022-08-19T12:41:19;6.53;;;4.88;;
10031;SDS011;5056;44.272;19.892;2022-08-19T12:43:47;7.05;;;4.82;;
10031;SDS011;5056;44.272;19.892;2022-08-19T12:46:14;11.43;;;5.75;;
10031;SDS011;5056;44.272;19.892;2022-08-19T12:48:42;12.23;;;5.20;;
10031;SDS011;5056;44.272;19.892;2022-08-19T12:51:11;12.90;;;5.93;;
10031;SDS011;5056;44.272;19.892;2022-08-19T12:53:39;6.35;;;5.15;;
10031;SDS011;5056;44.272;19.892;2022-08-19T12:56:07;7.63;;;4.85;;
10031;SDS011;5056;44.272;19.892;2022-08-19T12:58:35;11.93;;;5.47;;
10031;SDS011;5056;44.272;19.892;2022-08-19T13:01:05;14.13;;;5.72;;
10031;SDS011;5056;44.272;19.892;2022-08-19T13:03:33;9.73;;;5.68;;
10031;SDS011;5056;44.272;19.892;2022-08-19T13:06:02;13.90;;;6.70;;
10031;SDS011;5056;44.272;19.892;2022-08-19T13:08:29;8.50;;;6.38;;
10031;SDS011;5056;44.272;19.892;2022-08-19T13:10:56;14.90;;;6.97;;
10031;SDS011;5056;44.272;19.892;2022-08-19T13:13:23;13.35;;;6.43;;
10031;SDS011;5056;44.272;19.892;2022-08-19T13:15:59;17.40;;;6.68;;
10031;SDS011;5056;44.272;19.892;2022-08-19T13:18:27;24.83;;;8.45;;
10031;SDS011;5056;44.272;19.892;2022-08-19T13:20:55;12.60;;;6.88;;
10031;SDS011;5056;44.272;19.892;2022-08-19T13:23:22;18.55;;;7.22;;
10031;SDS011;5056;44.272;19.892;2022-08-19T13:25:58;17.33;;;6.97;;
10031;SDS011;5056;44.272;19.892;2022-08-19T13:28:25;18.05;;;6.85;;
10031;SDS011;5056;44.272;19.892;2022-08-19T13:31:16;12.40;;;6.47;;
10031;SDS011;5056;44.272;19.892;2022-08-19T13:34:01;10.63;;;5.82;;
10031;SDS011;5056;44.272;19.892;2022-08-19T13:36:28;22.48;;;7.18;;
10031;SDS011;5056;44.272;19.892;2022-08-19T13:38:55;19.48;;;6.50;;
10031;SDS011;5056;44.272;19.892;2022-08-19T13:41:23;11.93;;;6.13;;
10031;SDS011;5056;44.272;19.892;2022-08-19T13:43:50;10.45;;;6.22;;
10031;SDS011;5056;44.272;19.892;2022-08-19T13:46:19;13.35;;;6.28;;
10031;SDS011;5056;44.272;19.892;2022-08-19T13:48:46;14.77;;;6.90;;
10031;SDS011;5056;44.272;19.892;2022-08-19T13:51:14;12.85;;;6.88;;
10031;SDS011;5056;44.272;19.892;2022-08-19T13:53:42;15.80;;;7.72;;
10031;SDS011;5056;44.272;19.892;2022-08-19T13:56:12;18.55;;;8.77;;
10031;SDS011;5056;44.272;19.892;2022-08-19T13:58:40;18.30;;;8.80;;
10031;SDS011;5056;44.272;19.892;2022-08-19T14:01:20;15.25;;;8.55;;
10031;SDS011;5056;44.272;19.892;2022-08-19T14:03:48;18.70;;;9.15;;
10031;SDS011;5056;44.272;19.892;2022-08-19T14:06:24;18.13;;;8.23;;
10031;SDS011;5056;44.272;19.892;2022-08-19T14:08:51;17.85;;;7.97;;
10031;SDS011;5056;44.272;19.892;2022-08-19T14:11:19;12.80;;;7.20;;
10031;SDS011;5056;44.272;19.892;2022-08-19T14:13:48;19.67;;;8.30;;
10031;SDS011;5056;44.272;19.892;2022-08-19T14:16:15;12.25;;;7.57;;
10031;SDS011;5056;44.272;19.892;2022-08-19T14:18:45;15.27;;;8.50;;
10031;SDS011;5056;44.272;19.892;2022-08-19T14:21:16;15.35;;;9.07;;
10031;SDS011;5056;44.272;19.892;2022-08-19T14:23:45;17.55;;;9.55;;
10031;SDS011;5056;44.272;19.892;2022-08-19T14:26:15;13.05;;;8.77;;
10031;SDS011;5056;44.272;19.892;2022-08-19T14:28:42;14.90;;;8.57;;
10031;SDS011;5056;44.272;19.892;2022-08-19T14:31:10;17.45;;;9.15;;
10031;SDS011;5056;44.272;19.892;2022-08-19T14:33:41;15.85;;;8.93;;
10031;SDS011;5056;44.272;19.892;2022-08-19T14:36:11;19.15;;;10.68;;
10031;SDS011;5056;44.272;19.892;2022-08-19T14:38:38;14.40;;;10.52;;
10031;SDS011;5056;44.272;19.892;2022-08-19T14:41:08;19.83;;;11.05;;
10031;SDS011;5056;44.272;19.892;2022-08-19T14:43:38;15.18;;;9.82;;
10031;SDS011;5056;44.272;19.892;2022-08-19T14:46:05;14.90;;;9.85;;
10031;SDS011;5056;44.272;19.892;2022-08-19T14:48:34;17.33;;;10.15;;
10031;SDS011;5056;44.272;19.892;2022-08-19T14:51:04;14.32;;;9.43;;
10031;SDS011;5056;44.272;19.892;2022-08-19T14:53:35;14.20;;;9.70;;
10031;SDS011;5056;44.272;19.892;2022-08-19T14:56:12;14.02;;;11.02;;
10031;SDS011;5056;44.272;19.892;2022-08-19T14:58:40;20.10;;;10.65;;
10031;SDS011;5056;44.272;19.892;2022-08-19T15:01:08;15.85;;;10.18;;
10031;SDS011;5056;44.272;19.892;2022-08-19T15:03:36;15.98;;;10.73;;
10031;SDS011;5056;44.272;19.892;2022-08-19T15:06:05;14.70;;;10.95;;
10031;SDS011;5056;44.272;19.892;2022-08-19T15:08:37;16.42;;;10.43;;
10031;SDS011;5056;44.272;19.892;2022-08-19T15:11:07;17.88;;;11.75;;
10031;SDS011;5056;44.272;19.892;2022-08-19T15:13:35;15.93;;;11.75;;
10031;SDS011;5056;44.272;19.892;2022-08-19T15:16:04;22.20;;;13.15;;
10031;SDS011;5056;44.272;19.892;2022-08-19T15:18:33;15.50;;;10.73;;
10031;SDS011;5056;44.272;19.892;2022-08-19T15:21:01;17.85;;;9.93;;
10031;SDS011;5056;44.272;19.892;2022-08-19T15:23:29;15.10;;;8.32;;
10031;SDS011;5056;44.272;19.892;2022-08-19T15:25:59;25.55;;;9.43;;
10031;SDS011;5056;44.272;19.892;2022-08-19T15:28:27;17.40;;;7.57;;
10031;SDS011;5056;44.272;19.892;2022-08-19T15:30:55;21.63;;;8.63;;